sensor_id;sensor_type;location;lat;lon;timestamp;temperature;humidity
770;DHT22;368;48.698;9.116;2024-03-23T00:55:06;9.50;99.90
770;DHT22;368;48.698;9.116;2024-03-23T00:57:34;9.40;99.90
770;DHT22;368;48.698;9.116;2024-03-23T01:00:00;9.60;99.90
770;DHT22;368;48.698;9.116;2024-03-23T01:02:26;9.70;99.90
770;DHT22;368;48.698;9.116;2024-03-23T01:04:52;9.60;99.90
770;DHT22;368;48.698;9.116;2024-03-23T01:07:19;9.40;99.90
770;DHT22;368;48.698;9.116;2024-03-23T01:09:45;9.60;99.90
770;DHT22;368;48.698;9.116;2024-03-23T01:12:13;9.60;99.90
770;DHT22;368;48.698;9.116;2024-03-23T01:14:38;10.00;99.90
770;DHT22;368;48.698;9.116;2024-03-23T01:17:05;9.60;99.90
770;DHT22;368;48.698;9.116;2024-03-23T01:19:31;9.80;99.90
770;DHT22;368;48.698;9.116;2024-03-23T01:21:58;9.80;99.90
770;DHT22;368;48.698;9.116;2024-03-23T01:24:24;9.90;99.90
770;DHT22;368;48.698;9.116;2024-03-23T01:26:50;9.80;99.90
770;DHT22;368;48.698;9.116;2024-03-23T01:29:17;9.70;99.90
770;DHT22;368;48.698;9.116;2024-03-23T01:31:44;10.00;99.90
770;DHT22;368;48.698;9.116;2024-03-23T01:34:11;9.80;99.90
770;DHT22;368;48.698;9.116;2024-03-23T01:36:38;9.60;99.90
770;DHT22;368;48.698;9.116;2024-03-23T01:39:04;9.80;99.90
770;DHT22;368;48.698;9.116;2024-03-23T01:41:34;9.90;99.90
770;DHT22;368;48.698;9.116;2024-03-23T01:44:05;9.90;99.90
770;DHT22;368;48.698;9.116;2024-03-23T01:46:34;9.90;99.90
770;DHT22;368;48.698;9.116;2024-03-23T01:49:00;9.90;99.90
770;DHT22;368;48.698;9.116;2024-03-23T01:51:27;9.80;99.90
770;DHT22;368;48.698;9.116;2024-03-23T01:53:54;10.20;99.90
770;DHT22;368;48.698;9.116;2024-03-23T01:56:23;10.10;99.90
770;DHT22;368;48.698;9.116;2024-03-23T01:58:48;10.10;99.90
770;DHT22;368;48.698;9.116;2024-03-23T02:01:15;10.20;99.90
770;DHT22;368;48.698;9.116;2024-03-23T02:03:42;10.10;99.90
770;DHT22;368;48.698;9.116;2024-03-23T02:06:09;10.10;99.90
770;DHT22;368;48.698;9.116;2024-03-23T02:08:35;10.20;99.90
770;DHT22;368;48.698;9.116;2024-03-23T02:11:02;10.20;99.90
770;DHT22;368;48.698;9.116;2024-03-23T02:13:28;10.10;99.90
770;DHT22;368;48.698;9.116;2024-03-23T02:15:55;9.90;99.90
770;DHT22;368;48.698;9.116;2024-03-23T02:18:20;9.90;99.90
770;DHT22;368;48.698;9.116;2024-03-23T02:20:48;9.70;99.90
770;DHT22;368;48.698;9.116;2024-03-23T02:23:16;9.70;99.90
770;DHT22;368;48.698;9.116;2024-03-23T02:25:44;9.90;99.90
770;DHT22;368;48.698;9.116;2024-03-23T02:28:10;9.80;99.90
770;DHT22;368;48.698;9.116;2024-03-23T02:30:37;9.70;99.90
770;DHT22;368;48.698;9.116;2024-03-23T02:33:04;9.90;99.90
770;DHT22;368;48.698;9.116;2024-03-23T02:35:30;9.60;99.90
770;DHT22;368;48.698;9.116;2024-03-23T02:37:56;9.80;99.90
770;DHT22;368;48.698;9.116;2024-03-23T02:40:24;9.50;99.90
770;DHT22;368;48.698;9.116;2024-03-23T02:42:51;9.50;99.90
770;DHT22;368;48.698;9.116;2024-03-23T02:45:17;9.60;99.90
770;DHT22;368;48.698;9.116;2024-03-23T02:47:43;9.70;99.90
770;DHT22;368;48.698;9.116;2024-03-23T02:50:10;9.50;99.90
770;DHT22;368;48.698;9.116;2024-03-23T02:52:36;9.60;99.90
770;DHT22;368;48.698;9.116;2024-03-23T02:55:03;9.70;99.90
770;DHT22;368;48.698;9.116;2024-03-23T02:57:30;9.50;99.90
770;DHT22;368;48.698;9.116;2024-03-23T02:59:57;9.50;99.90
770;DHT22;368;48.698;9.116;2024-03-23T03:02:23;9.70;99.90
770;DHT22;368;48.698;9.116;2024-03-23T03:04:50;9.80;99.90
770;DHT22;368;48.698;9.116;2024-03-23T03:07:16;10.00;99.90
770;DHT22;368;48.698;9.116;2024-03-23T03:09:42;9.70;99.90
770;DHT22;368;48.698;9.116;2024-03-23T03:12:08;9.70;99.90
770;DHT22;368;48.698;9.116;2024-03-23T03:14:36;9.70;99.90
770;DHT22;368;48.698;9.116;2024-03-23T03:17:03;9.70;99.90
770;DHT22;368;48.698;9.116;2024-03-23T03:19:30;9.80;99.90
770;DHT22;368;48.698;9.116;2024-03-23T03:21:55;9.70;99.90
770;DHT22;368;48.698;9.116;2024-03-23T03:24:24;9.80;99.90
770;DHT22;368;48.698;9.116;2024-03-23T03:26:49;9.80;99.90
770;DHT22;368;48.698;9.116;2024-03-23T03:29:16;9.60;99.90
770;DHT22;368;48.698;9.116;2024-03-23T03:31:44;9.90;99.90
770;DHT22;368;48.698;9.116;2024-03-23T03:34:10;9.80;99.90
770;DHT22;368;48.698;9.116;2024-03-23T03:36:36;9.60;99.90
770;DHT22;368;48.698;9.116;2024-03-23T03:39:03;9.60;99.90
770;DHT22;368;48.698;9.116;2024-03-23T03:41:30;9.60;99.90
770;DHT22;368;48.698;9.116;2024-03-23T03:43:57;9.70;99.90
770;DHT22;368;48.698;9.116;2024-03-23T03:46:27;9.70;99.90
770;DHT22;368;48.698;9.116;2024-03-23T03:48:55;9.40;99.90
770;DHT22;368;48.698;9.116;2024-03-23T03:51:21;9.50;99.90
770;DHT22;368;48.698;9.116;2024-03-23T03:53:48;9.80;99.90
770;DHT22;368;48.698;9.116;2024-03-23T03:56:14;9.50;99.90
770;DHT22;368;48.698;9.116;2024-03-23T03:58:40;9.40;99.90
770;DHT22;368;48.698;9.116;2024-03-23T04:01:06;9.40;99.90
770;DHT22;368;48.698;9.116;2024-03-23T04:03:34;9.20;99.90
770;DHT22;368;48.698;9.116;2024-03-23T04:06:02;9.20;99.90
770;DHT22;368;48.698;9.116;2024-03-23T04:08:29;8.90;99.90
770;DHT22;368;48.698;9.116;2024-03-23T04:10:54;8.80;99.90
770;DHT22;368;48.698;9.116;2024-03-23T04:13:21;9.20;99.90
770;DHT22;368;48.698;9.116;2024-03-23T04:15:47;9.10;99.90
770;DHT22;368;48.698;9.116;2024-03-23T04:18:14;8.90;99.90
770;DHT22;368;48.698;9.116;2024-03-23T04:20:40;9.30;99.90
770;DHT22;368;48.698;9.116;2024-03-23T04:23:08;9.30;99.90
770;DHT22;368;48.698;9.116;2024-03-23T04:25:34;9.30;99.90
770;DHT22;368;48.698;9.116;2024-03-23T04:28:01;9.30;99.90
770;DHT22;368;48.698;9.116;2024-03-23T04:30:27;9.40;99.90
770;DHT22;368;48.698;9.116;2024-03-23T04:32:54;9.10;99.90
770;DHT22;368;48.698;9.116;2024-03-23T04:35:20;9.20;99.90
770;DHT22;368;48.698;9.116;2024-03-23T04:37:50;9.10;99.90
770;DHT22;368;48.698;9.116;2024-03-23T04:40:19;8.90;99.90
770;DHT22;368;48.698;9.116;2024-03-23T04:42:47;9.20;99.90
770;DHT22;368;48.698;9.116;2024-03-23T04:45:14;9.10;99.90
770;DHT22;368;48.698;9.116;2024-03-23T04:47:41;9.10;99.90
770;DHT22;368;48.698;9.116;2024-03-23T04:50:08;9.30;99.90
770;DHT22;368;48.698;9.116;2024-03-23T04:52:36;9.30;99.90
770;DHT22;368;48.698;9.116;2024-03-23T04:55:03;9.60;99.90
770;DHT22;368;48.698;9.116;2024-03-23T04:57:30;10.10;99.90
770;DHT22;368;48.698;9.116;2024-03-23T04:59:57;10.20;99.90
770;DHT22;368;48.698;9.116;2024-03-23T05:02:23;10.10;99.90
770;DHT22;368;48.698;9.116;2024-03-23T05:04:51;10.10;99.90
770;DHT22;368;48.698;9.116;2024-03-23T05:07:16;9.70;99.90
770;DHT22;368;48.698;9.116;2024-03-23T05:09:43;9.40;99.90
770;DHT22;368;48.698;9.116;2024-03-23T05:12:09;9.10;99.90
770;DHT22;368;48.698;9.116;2024-03-23T05:14:37;9.30;99.90
770;DHT22;368;48.698;9.116;2024-03-23T05:17:03;9.40;99.90
770;DHT22;368;48.698;9.116;2024-03-23T05:19:30;9.50;99.90
770;DHT22;368;48.698;9.116;2024-03-23T05:21:56;9.20;99.90
770;DHT22;368;48.698;9.116;2024-03-23T05:24:22;9.10;99.90
770;DHT22;368;48.698;9.116;2024-03-23T05:26:48;9.10;99.90
770;DHT22;368;48.698;9.116;2024-03-23T05:29:15;9.20;99.90
770;DHT22;368;48.698;9.116;2024-03-23T05:31:44;9.00;99.90
770;DHT22;368;48.698;9.116;2024-03-23T05:34:11;9.20;99.90
770;DHT22;368;48.698;9.116;2024-03-23T05:36:36;9.10;99.90
770;DHT22;368;48.698;9.116;2024-03-23T05:39:03;9.10;99.90
770;DHT22;368;48.698;9.116;2024-03-23T05:41:29;9.10;99.90
770;DHT22;368;48.698;9.116;2024-03-23T05:43:56;9.00;99.90
770;DHT22;368;48.698;9.116;2024-03-23T05:46:22;9.10;99.90
770;DHT22;368;48.698;9.116;2024-03-23T05:48:51;9.10;99.90
770;DHT22;368;48.698;9.116;2024-03-23T05:51:17;9.00;99.90
770;DHT22;368;48.698;9.116;2024-03-23T05:53:44;8.90;99.90
770;DHT22;368;48.698;9.116;2024-03-23T05:56:10;9.00;99.90
770;DHT22;368;48.698;9.116;2024-03-23T05:58:37;8.80;99.90
770;DHT22;368;48.698;9.116;2024-03-23T06:01:03;8.90;99.90
770;DHT22;368;48.698;9.116;2024-03-23T06:03:30;8.70;99.90
770;DHT22;368;48.698;9.116;2024-03-23T06:05:57;8.90;99.90
770;DHT22;368;48.698;9.116;2024-03-23T06:08:24;8.50;99.90
770;DHT22;368;48.698;9.116;2024-03-23T06:10:50;8.40;99.90
770;DHT22;368;48.698;9.116;2024-03-23T06:13:17;8.40;99.90
770;DHT22;368;48.698;9.116;2024-03-23T06:15:43;8.30;99.90
770;DHT22;368;48.698;9.116;2024-03-23T06:18:11;8.30;99.90
770;DHT22;368;48.698;9.116;2024-03-23T06:20:37;8.20;99.90
770;DHT22;368;48.698;9.116;2024-03-23T06:23:05;8.40;99.90
770;DHT22;368;48.698;9.116;2024-03-23T06:25:31;8.20;99.90
770;DHT22;368;48.698;9.116;2024-03-23T06:27:58;8.30;99.90
770;DHT22;368;48.698;9.116;2024-03-23T06:30:24;8.10;99.90
770;DHT22;368;48.698;9.116;2024-03-23T06:32:52;8.10;99.90
770;DHT22;368;48.698;9.116;2024-03-23T06:35:18;8.40;99.90
770;DHT22;368;48.698;9.116;2024-03-23T06:37:45;8.10;99.90
770;DHT22;368;48.698;9.116;2024-03-23T06:40:12;8.20;99.90
770;DHT22;368;48.698;9.116;2024-03-23T06:42:39;8.20;99.90
770;DHT22;368;48.698;9.116;2024-03-23T06:45:06;8.00;99.90
770;DHT22;368;48.698;9.116;2024-03-23T06:47:33;8.00;99.90
770;DHT22;368;48.698;9.116;2024-03-23T06:50:00;8.20;99.90
770;DHT22;368;48.698;9.116;2024-03-23T06:52:28;8.20;99.90
770;DHT22;368;48.698;9.116;2024-03-23T06:54:54;8.10;99.90
770;DHT22;368;48.698;9.116;2024-03-23T06:57:22;8.20;99.90
770;DHT22;368;48.698;9.116;2024-03-23T06:59:48;8.20;99.90
770;DHT22;368;48.698;9.116;2024-03-23T07:02:15;8.20;99.90
770;DHT22;368;48.698;9.116;2024-03-23T07:04:41;8.60;99.90
770;DHT22;368;48.698;9.116;2024-03-23T07:07:08;8.20;99.90
770;DHT22;368;48.698;9.116;2024-03-23T07:09:34;8.30;99.90
770;DHT22;368;48.698;9.116;2024-03-23T07:12:01;8.20;99.90
770;DHT22;368;48.698;9.116;2024-03-23T07:14:28;8.30;99.90
770;DHT22;368;48.698;9.116;2024-03-23T07:16:54;8.20;99.90
770;DHT22;368;48.698;9.116;2024-03-23T07:19:20;8.30;99.90
770;DHT22;368;48.698;9.116;2024-03-23T07:21:47;8.20;99.90
770;DHT22;368;48.698;9.116;2024-03-23T07:24:13;8.50;99.90
770;DHT22;368;48.698;9.116;2024-03-23T07:26:40;8.30;99.90
770;DHT22;368;48.698;9.116;2024-03-23T07:29:07;8.00;99.90
770;DHT22;368;48.698;9.116;2024-03-23T07:31:35;8.30;99.90
770;DHT22;368;48.698;9.116;2024-03-23T07:34:01;8.30;99.90
770;DHT22;368;48.698;9.116;2024-03-23T07:36:27;8.30;99.90
770;DHT22;368;48.698;9.116;2024-03-23T07:38:53;8.10;99.90
770;DHT22;368;48.698;9.116;2024-03-23T07:41:20;7.90;99.90
770;DHT22;368;48.698;9.116;2024-03-23T07:43:47;8.20;99.90
770;DHT22;368;48.698;9.116;2024-03-23T07:46:15;8.30;99.90
770;DHT22;368;48.698;9.116;2024-03-23T07:48:42;8.30;99.90
770;DHT22;368;48.698;9.116;2024-03-23T07:51:11;8.20;99.90
770;DHT22;368;48.698;9.116;2024-03-23T07:53:37;8.40;99.90
770;DHT22;368;48.698;9.116;2024-03-23T07:56:06;8.20;99.90
770;DHT22;368;48.698;9.116;2024-03-23T07:58:32;8.50;99.90
770;DHT22;368;48.698;9.116;2024-03-23T08:01:04;8.20;99.90
770;DHT22;368;48.698;9.116;2024-03-23T08:03:30;8.50;99.90
770;DHT22;368;48.698;9.116;2024-03-23T08:06:06;8.50;99.90
770;DHT22;368;48.698;9.116;2024-03-23T08:08:32;8.30;99.90
770;DHT22;368;48.698;9.116;2024-03-23T08:10:59;8.30;99.90
770;DHT22;368;48.698;9.116;2024-03-23T08:13:25;8.10;99.90
770;DHT22;368;48.698;9.116;2024-03-23T08:15:56;8.00;99.90
770;DHT22;368;48.698;9.116;2024-03-23T08:18:22;8.40;99.90
770;DHT22;368;48.698;9.116;2024-03-23T08:20:55;8.80;99.90
770;DHT22;368;48.698;9.116;2024-03-23T08:23:23;8.60;99.90
770;DHT22;368;48.698;9.116;2024-03-23T08:25:50;8.60;99.90
770;DHT22;368;48.698;9.116;2024-03-23T08:28:15;8.60;99.90
770;DHT22;368;48.698;9.116;2024-03-23T08:30:42;8.30;99.90
770;DHT22;368;48.698;9.116;2024-03-23T08:33:08;8.50;99.90
770;DHT22;368;48.698;9.116;2024-03-23T08:35:35;8.70;99.90
770;DHT22;368;48.698;9.116;2024-03-23T08:38:01;8.40;99.90
770;DHT22;368;48.698;9.116;2024-03-23T08:40:29;8.00;99.90
770;DHT22;368;48.698;9.116;2024-03-23T08:42:55;7.90;99.90
770;DHT22;368;48.698;9.116;2024-03-23T08:45:22;7.90;99.90
770;DHT22;368;48.698;9.116;2024-03-23T08:47:47;7.80;99.90
770;DHT22;368;48.698;9.116;2024-03-23T08:50:14;8.40;99.90
770;DHT22;368;48.698;9.116;2024-03-23T08:52:40;8.40;99.90
770;DHT22;368;48.698;9.116;2024-03-23T08:55:08;8.80;99.90
770;DHT22;368;48.698;9.116;2024-03-23T08:57:36;9.10;99.90
770;DHT22;368;48.698;9.116;2024-03-23T09:00:04;9.20;99.90
770;DHT22;368;48.698;9.116;2024-03-23T09:02:31;9.10;99.90
770;DHT22;368;48.698;9.116;2024-03-23T09:04:58;8.80;99.90
770;DHT22;368;48.698;9.116;2024-03-23T09:07:30;8.60;99.90
770;DHT22;368;48.698;9.116;2024-03-23T09:09:56;8.50;99.90
770;DHT22;368;48.698;9.116;2024-03-23T09:12:22;7.90;99.90
770;DHT22;368;48.698;9.116;2024-03-23T09:14:51;7.80;99.90
770;DHT22;368;48.698;9.116;2024-03-23T09:17:17;7.80;99.90
770;DHT22;368;48.698;9.116;2024-03-23T09:19:44;8.10;99.90
770;DHT22;368;48.698;9.116;2024-03-23T09:22:10;8.20;99.90
770;DHT22;368;48.698;9.116;2024-03-23T09:24:38;8.10;99.90
770;DHT22;368;48.698;9.116;2024-03-23T09:27:04;8.90;99.90
770;DHT22;368;48.698;9.116;2024-03-23T09:29:31;8.70;99.90
770;DHT22;368;48.698;9.116;2024-03-23T09:31:58;8.70;99.90
770;DHT22;368;48.698;9.116;2024-03-23T09:34:25;9.70;99.90
770;DHT22;368;48.698;9.116;2024-03-23T09:36:51;9.50;99.90
770;DHT22;368;48.698;9.116;2024-03-23T09:39:19;9.70;99.90
770;DHT22;368;48.698;9.116;2024-03-23T09:41:45;10.60;99.90
770;DHT22;368;48.698;9.116;2024-03-23T09:44:12;9.50;99.00
770;DHT22;368;48.698;9.116;2024-03-23T09:46:38;9.10;99.70
770;DHT22;368;48.698;9.116;2024-03-23T09:49:07;8.50;99.90
770;DHT22;368;48.698;9.116;2024-03-23T09:51:35;8.90;99.90
770;DHT22;368;48.698;9.116;2024-03-23T09:54:02;8.80;99.90
770;DHT22;368;48.698;9.116;2024-03-23T09:56:28;8.80;99.90
770;DHT22;368;48.698;9.116;2024-03-23T09:59:03;8.80;99.90
770;DHT22;368;48.698;9.116;2024-03-23T10:01:30;8.90;99.90
770;DHT22;368;48.698;9.116;2024-03-23T10:03:57;8.90;99.90
770;DHT22;368;48.698;9.116;2024-03-23T10:06:26;9.00;99.90
770;DHT22;368;48.698;9.116;2024-03-23T10:08:59;10.00;98.30
770;DHT22;368;48.698;9.116;2024-03-23T10:11:25;11.60;97.50
770;DHT22;368;48.698;9.116;2024-03-23T10:13:53;12.90;93.00
770;DHT22;368;48.698;9.116;2024-03-23T10:16:23;12.60;90.60
770;DHT22;368;48.698;9.116;2024-03-23T10:18:52;13.10;90.50
770;DHT22;368;48.698;9.116;2024-03-23T10:21:18;12.10;89.80
770;DHT22;368;48.698;9.116;2024-03-23T10:23:46;12.60;91.50
770;DHT22;368;48.698;9.116;2024-03-23T10:26:14;13.40;89.60
770;DHT22;368;48.698;9.116;2024-03-23T10:28:57;12.50;85.50
770;DHT22;368;48.698;9.116;2024-03-23T10:31:25;11.40;87.00
770;DHT22;368;48.698;9.116;2024-03-23T10:33:52;10.40;90.60
770;DHT22;368;48.698;9.116;2024-03-23T10:36:20;9.80;91.70
770;DHT22;368;48.698;9.116;2024-03-23T10:38:50;9.70;91.30
770;DHT22;368;48.698;9.116;2024-03-23T10:41:17;9.40;91.60
770;DHT22;368;48.698;9.116;2024-03-23T10:43:46;9.50;92.50
770;DHT22;368;48.698;9.116;2024-03-23T10:46:12;9.50;92.50
770;DHT22;368;48.698;9.116;2024-03-23T10:48:39;9.50;93.00
770;DHT22;368;48.698;9.116;2024-03-23T10:51:07;9.70;94.00
770;DHT22;368;48.698;9.116;2024-03-23T10:53:35;9.70;92.80
770;DHT22;368;48.698;9.116;2024-03-23T10:56:04;9.10;94.50
770;DHT22;368;48.698;9.116;2024-03-23T10:58:35;8.30;98.00
770;DHT22;368;48.698;9.116;2024-03-23T11:01:03;7.00;99.90
770;DHT22;368;48.698;9.116;2024-03-23T11:03:31;5.90;99.90
770;DHT22;368;48.698;9.116;2024-03-23T11:05:57;5.10;99.90
770;DHT22;368;48.698;9.116;2024-03-23T11:08:31;4.60;99.90
770;DHT22;368;48.698;9.116;2024-03-23T11:11:22;4.80;99.90
770;DHT22;368;48.698;9.116;2024-03-23T11:13:52;5.00;99.90
770;DHT22;368;48.698;9.116;2024-03-23T11:16:22;6.20;99.90
770;DHT22;368;48.698;9.116;2024-03-23T11:18:51;6.60;99.90
770;DHT22;368;48.698;9.116;2024-03-23T11:21:51;6.60;99.90
770;DHT22;368;48.698;9.116;2024-03-23T11:24:19;7.00;99.90
770;DHT22;368;48.698;9.116;2024-03-23T11:26:46;8.60;99.90
770;DHT22;368;48.698;9.116;2024-03-23T11:29:14;9.90;99.90
770;DHT22;368;48.698;9.116;2024-03-23T11:31:46;10.00;99.90
770;DHT22;368;48.698;9.116;2024-03-23T11:34:13;9.40;99.90
770;DHT22;368;48.698;9.116;2024-03-23T11:36:40;8.80;99.90
770;DHT22;368;48.698;9.116;2024-03-23T11:39:13;9.60;99.90
770;DHT22;368;48.698;9.116;2024-03-23T11:41:50;10.10;99.90
770;DHT22;368;48.698;9.116;2024-03-23T11:44:18;12.40;99.90
770;DHT22;368;48.698;9.116;2024-03-23T11:46:44;12.40;99.70
770;DHT22;368;48.698;9.116;2024-03-23T11:49:21;11.50;99.70
770;DHT22;368;48.698;9.116;2024-03-23T11:51:47;11.00;99.90
770;DHT22;368;48.698;9.116;2024-03-23T11:54:14;10.20;99.90
770;DHT22;368;48.698;9.116;2024-03-23T11:56:40;9.20;99.90
770;DHT22;368;48.698;9.116;2024-03-23T11:59:08;9.20;99.90
770;DHT22;368;48.698;9.116;2024-03-23T12:01:34;9.20;99.90
770;DHT22;368;48.698;9.116;2024-03-23T12:04:01;8.80;99.90
770;DHT22;368;48.698;9.116;2024-03-23T12:06:27;9.60;99.90
770;DHT22;368;48.698;9.116;2024-03-23T12:09:05;9.60;99.90
770;DHT22;368;48.698;9.116;2024-03-23T12:11:31;9.60;99.90
770;DHT22;368;48.698;9.116;2024-03-23T12:14:00;9.30;99.90
770;DHT22;368;48.698;9.116;2024-03-23T12:16:27;9.50;99.90
770;DHT22;368;48.698;9.116;2024-03-23T12:19:05;9.40;99.90
770;DHT22;368;48.698;9.116;2024-03-23T12:21:32;8.80;99.90
770;DHT22;368;48.698;9.116;2024-03-23T12:23:59;8.60;98.70
770;DHT22;368;48.698;9.116;2024-03-23T12:26:26;8.40;99.10
770;DHT22;368;48.698;9.116;2024-03-23T12:28:52;8.20;99.40
770;DHT22;368;48.698;9.116;2024-03-23T12:31:18;8.40;99.30
770;DHT22;368;48.698;9.116;2024-03-23T12:33:46;8.90;98.90
770;DHT22;368;48.698;9.116;2024-03-23T12:36:12;8.80;99.40
770;DHT22;368;48.698;9.116;2024-03-23T12:38:40;8.80;99.20
770;DHT22;368;48.698;9.116;2024-03-23T12:41:05;8.90;98.20
770;DHT22;368;48.698;9.116;2024-03-23T12:43:32;8.80;98.60
770;DHT22;368;48.698;9.116;2024-03-23T12:45:58;8.50;99.10
770;DHT22;368;48.698;9.116;2024-03-23T12:48:25;8.50;98.60
770;DHT22;368;48.698;9.116;2024-03-23T12:50:56;8.50;98.40
770;DHT22;368;48.698;9.116;2024-03-23T12:53:23;8.50;98.80
770;DHT22;368;48.698;9.116;2024-03-23T12:55:49;8.10;98.40
770;DHT22;368;48.698;9.116;2024-03-23T12:58:15;8.30;98.50
770;DHT22;368;48.698;9.116;2024-03-23T13:00:41;8.20;98.50
770;DHT22;368;48.698;9.116;2024-03-23T13:03:13;8.20;98.30
770;DHT22;368;48.698;9.116;2024-03-23T13:05:39;8.70;99.30
770;DHT22;368;48.698;9.116;2024-03-23T13:08:08;8.30;98.80
770;DHT22;368;48.698;9.116;2024-03-23T13:10:33;8.50;98.80
770;DHT22;368;48.698;9.116;2024-03-23T13:13:00;9.00;98.80
770;DHT22;368;48.698;9.116;2024-03-23T13:15:26;8.80;97.70
770;DHT22;368;48.698;9.116;2024-03-23T13:17:53;10.90;96.50
770;DHT22;368;48.698;9.116;2024-03-23T13:20:19;11.00;94.10
770;DHT22;368;48.698;9.116;2024-03-23T13:22:46;10.20;91.10
770;DHT22;368;48.698;9.116;2024-03-23T13:25:14;9.00;90.30
770;DHT22;368;48.698;9.116;2024-03-23T13:27:41;8.60;91.80
770;DHT22;368;48.698;9.116;2024-03-23T13:30:08;8.10;91.50
770;DHT22;368;48.698;9.116;2024-03-23T13:32:35;8.20;91.00
770;DHT22;368;48.698;9.116;2024-03-23T13:35:02;8.00;91.10
770;DHT22;368;48.698;9.116;2024-03-23T13:37:29;10.00;90.50
770;DHT22;368;48.698;9.116;2024-03-23T13:39:54;12.30;84.40
770;DHT22;368;48.698;9.116;2024-03-23T13:42:23;12.40;82.50
770;DHT22;368;48.698;9.116;2024-03-23T13:44:51;13.70;75.70
770;DHT22;368;48.698;9.116;2024-03-23T13:47:18;14.10;74.80
770;DHT22;368;48.698;9.116;2024-03-23T13:49:44;14.60;74.30
770;DHT22;368;48.698;9.116;2024-03-23T13:52:12;14.90;75.50
770;DHT22;368;48.698;9.116;2024-03-23T13:54:37;14.30;73.30
770;DHT22;368;48.698;9.116;2024-03-23T13:57:04;14.50;75.60
770;DHT22;368;48.698;9.116;2024-03-23T13:59:32;14.00;72.70
770;DHT22;368;48.698;9.116;2024-03-23T14:01:58;13.40;75.70
770;DHT22;368;48.698;9.116;2024-03-23T14:04:24;12.50;76.10
770;DHT22;368;48.698;9.116;2024-03-23T14:06:51;11.00;81.70
770;DHT22;368;48.698;9.116;2024-03-23T14:09:17;10.20;85.00
770;DHT22;368;48.698;9.116;2024-03-23T14:11:46;9.60;89.80
770;DHT22;368;48.698;9.116;2024-03-23T14:14:12;8.50;92.40
770;DHT22;368;48.698;9.116;2024-03-23T14:16:43;8.40;97.30
770;DHT22;368;48.698;9.116;2024-03-23T14:19:09;8.60;99.10
770;DHT22;368;48.698;9.116;2024-03-23T14:21:36;10.70;95.50
770;DHT22;368;48.698;9.116;2024-03-23T14:24:02;12.50;93.60
770;DHT22;368;48.698;9.116;2024-03-23T14:26:29;13.60;88.60
770;DHT22;368;48.698;9.116;2024-03-23T14:28:55;11.70;90.30
770;DHT22;368;48.698;9.116;2024-03-23T14:31:22;11.10;91.20
770;DHT22;368;48.698;9.116;2024-03-23T14:33:50;9.80;92.80
770;DHT22;368;48.698;9.116;2024-03-23T14:36:17;9.90;93.80
770;DHT22;368;48.698;9.116;2024-03-23T14:38:46;9.40;94.20
770;DHT22;368;48.698;9.116;2024-03-23T14:41:13;8.60;95.20
770;DHT22;368;48.698;9.116;2024-03-23T14:43:39;8.50;96.30
770;DHT22;368;48.698;9.116;2024-03-23T14:46:09;10.30;94.40
770;DHT22;368;48.698;9.116;2024-03-23T14:48:35;10.70;92.70
770;DHT22;368;48.698;9.116;2024-03-23T14:51:04;9.80;92.70
770;DHT22;368;48.698;9.116;2024-03-23T14:53:31;9.00;94.40
770;DHT22;368;48.698;9.116;2024-03-23T14:55:58;8.60;95.30
770;DHT22;368;48.698;9.116;2024-03-23T14:58:25;9.10;95.00
770;DHT22;368;48.698;9.116;2024-03-23T15:00:52;8.90;95.60
770;DHT22;368;48.698;9.116;2024-03-23T15:03:18;8.50;96.00
770;DHT22;368;48.698;9.116;2024-03-23T15:05:52;8.20;97.20
770;DHT22;368;48.698;9.116;2024-03-23T15:08:19;7.70;99.40
770;DHT22;368;48.698;9.116;2024-03-23T15:10:46;7.20;99.90
770;DHT22;368;48.698;9.116;2024-03-23T15:13:12;7.20;99.90
770;DHT22;368;48.698;9.116;2024-03-23T15:15:40;8.40;99.90
770;DHT22;368;48.698;9.116;2024-03-23T15:18:07;9.70;99.90
770;DHT22;368;48.698;9.116;2024-03-23T15:20:33;10.00;99.00
770;DHT22;368;48.698;9.116;2024-03-23T15:23:01;10.60;97.50
770;DHT22;368;48.698;9.116;2024-03-23T15:25:29;10.30;98.40
770;DHT22;368;48.698;9.116;2024-03-23T15:27:56;11.50;97.00
770;DHT22;368;48.698;9.116;2024-03-23T15:30:23;12.10;95.30
770;DHT22;368;48.698;9.116;2024-03-23T15:32:49;13.00;93.80
770;DHT22;368;48.698;9.116;2024-03-23T15:35:16;12.60;93.60
770;DHT22;368;48.698;9.116;2024-03-23T15:37:41;12.50;92.10
770;DHT22;368;48.698;9.116;2024-03-23T15:40:10;11.50;92.80
770;DHT22;368;48.698;9.116;2024-03-23T15:42:38;10.10;94.10
770;DHT22;368;48.698;9.116;2024-03-23T15:45:06;9.10;97.00
770;DHT22;368;48.698;9.116;2024-03-23T15:47:33;8.60;98.30
770;DHT22;368;48.698;9.116;2024-03-23T15:49:59;8.00;99.10
770;DHT22;368;48.698;9.116;2024-03-23T15:52:25;7.50;99.90
770;DHT22;368;48.698;9.116;2024-03-23T15:54:52;7.30;99.90
770;DHT22;368;48.698;9.116;2024-03-23T15:57:18;7.30;99.90
770;DHT22;368;48.698;9.116;2024-03-23T15:59:46;7.00;99.90
770;DHT22;368;48.698;9.116;2024-03-23T16:02:12;7.00;99.90
770;DHT22;368;48.698;9.116;2024-03-23T16:04:39;7.00;99.90
770;DHT22;368;48.698;9.116;2024-03-23T16:07:04;7.20;99.90
770;DHT22;368;48.698;9.116;2024-03-23T16:09:31;8.10;98.70
770;DHT22;368;48.698;9.116;2024-03-23T16:11:57;9.10;96.20
770;DHT22;368;48.698;9.116;2024-03-23T16:14:24;8.60;95.20
770;DHT22;368;48.698;9.116;2024-03-23T16:16:51;8.20;97.00
770;DHT22;368;48.698;9.116;2024-03-23T16:19:17;7.50;97.60
770;DHT22;368;48.698;9.116;2024-03-23T16:21:43;7.40;98.10
770;DHT22;368;48.698;9.116;2024-03-23T16:24:10;7.20;98.70
770;DHT22;368;48.698;9.116;2024-03-23T16:26:36;7.50;97.90
770;DHT22;368;48.698;9.116;2024-03-23T16:29:03;7.60;97.70
770;DHT22;368;48.698;9.116;2024-03-23T16:31:29;7.30;98.20
770;DHT22;368;48.698;9.116;2024-03-23T16:33:58;7.20;97.80
770;DHT22;368;48.698;9.116;2024-03-23T16:36:24;7.20;98.20
770;DHT22;368;48.698;9.116;2024-03-23T16:38:51;6.90;98.10
770;DHT22;368;48.698;9.116;2024-03-23T16:41:17;7.00;98.50
770;DHT22;368;48.698;9.116;2024-03-23T16:43:44;7.00;98.70
770;DHT22;368;48.698;9.116;2024-03-23T16:46:12;7.10;98.90
770;DHT22;368;48.698;9.116;2024-03-23T16:48:40;7.20;99.00
770;DHT22;368;48.698;9.116;2024-03-23T16:51:09;7.10;99.00
770;DHT22;368;48.698;9.116;2024-03-23T16:53:36;7.20;99.90
770;DHT22;368;48.698;9.116;2024-03-23T16:56:05;7.10;99.90
770;DHT22;368;48.698;9.116;2024-03-23T16:58:33;7.10;99.90
770;DHT22;368;48.698;9.116;2024-03-23T17:01:02;7.20;99.90
770;DHT22;368;48.698;9.116;2024-03-23T17:03:29;6.90;99.90
770;DHT22;368;48.698;9.116;2024-03-23T17:05:56;6.80;99.90
770;DHT22;368;48.698;9.116;2024-03-23T17:08:31;6.70;99.90
770;DHT22;368;48.698;9.116;2024-03-23T17:11:01;6.70;99.90
770;DHT22;368;48.698;9.116;2024-03-23T17:13:31;6.50;99.90
770;DHT22;368;48.698;9.116;2024-03-23T17:15:57;6.80;99.90
770;DHT22;368;48.698;9.116;2024-03-23T17:18:24;6.60;99.90
770;DHT22;368;48.698;9.116;2024-03-23T17:20:50;6.60;99.90
770;DHT22;368;48.698;9.116;2024-03-23T17:23:23;6.30;99.90
770;DHT22;368;48.698;9.116;2024-03-23T17:25:50;6.20;99.90
770;DHT22;368;48.698;9.116;2024-03-23T17:28:16;6.30;99.90
770;DHT22;368;48.698;9.116;2024-03-23T17:30:42;6.20;99.90
770;DHT22;368;48.698;9.116;2024-03-23T17:33:09;6.20;99.90
770;DHT22;368;48.698;9.116;2024-03-23T17:35:35;6.20;99.90
770;DHT22;368;48.698;9.116;2024-03-23T17:38:02;6.10;99.90
770;DHT22;368;48.698;9.116;2024-03-23T17:40:29;6.30;99.90
770;DHT22;368;48.698;9.116;2024-03-23T17:42:57;6.30;99.90